createdAt,value
2018-05-13T00:05:43.194Z,9.71
2018-05-13T00:11:38.195Z,8.83
2018-05-13T00:17:33.205Z,8.95
2018-05-13T00:23:28.248Z,8.84
2018-05-13T00:29:23.207Z,9.84
2018-05-13T00:35:18.232Z,9.69
2018-05-13T00:41:13.206Z,8.94
2018-05-13T00:47:08.237Z,8.55
2018-05-13T00:53:03.269Z,8.91
2018-05-13T00:58:58.223Z,8.3
2018-05-13T01:04:53.275Z,8.62
2018-05-13T01:10:48.272Z,7.44
2018-05-13T01:16:43.286Z,7.95
2018-05-13T01:22:38.253Z,10.72
2018-05-13T01:28:33.287Z,10.57
2018-05-13T01:34:28.256Z,11.16
2018-05-13T01:40:23.255Z,9
2018-05-13T01:46:18.289Z,10.03
2018-05-13T01:52:13.292Z,10.21
2018-05-13T01:58:08.272Z,10.77
2018-05-13T02:04:03.307Z,10.8
2018-05-13T02:09:58.291Z,10.33
2018-05-13T02:15:53.295Z,10.03
2018-05-13T02:21:48.365Z,10.71
2018-05-13T02:27:43.315Z,11.22
2018-05-13T02:33:38.323Z,21.88
2018-05-13T02:39:33.263Z,9.88
2018-05-13T02:45:28.328Z,10.31
2018-05-13T02:51:23.310Z,9.24
2018-05-13T02:57:18.315Z,10
2018-05-13T03:03:13.445Z,8.88
2018-05-13T03:09:08.302Z,7.7
2018-05-13T03:15:03.321Z,7.43
2018-05-13T03:20:58.301Z,7.23
2018-05-13T03:26:53.318Z,7.65
2018-05-13T03:32:48.300Z,7.77
2018-05-13T03:38:43.327Z,8.02
2018-05-13T03:44:38.308Z,7.9
2018-05-13T03:50:33.362Z,7.57
2018-05-13T03:56:28.336Z,7.06
2018-05-13T04:02:23.334Z,7.11
2018-05-13T04:08:18.394Z,8.09
2018-05-13T04:14:13.349Z,7.27
2018-05-13T04:20:08.337Z,8.12
2018-05-13T04:26:03.397Z,7.24
2018-05-13T04:31:58.345Z,8.03
2018-05-13T04:37:53.404Z,7.47
2018-05-13T04:43:48.367Z,7.37
2018-05-13T04:49:43.381Z,7.44
2018-05-13T04:55:38.361Z,8.1
2018-05-13T05:01:33.366Z,9.27
2018-05-13T05:07:28.383Z,9.97
2018-05-13T05:13:23.376Z,9.53
2018-05-13T05:19:18.380Z,9.31
2018-05-13T05:25:13.398Z,12.07
2018-05-13T05:31:08.380Z,13.31
2018-05-13T05:37:03.406Z,11.53
2018-05-13T05:42:58.365Z,10.87
2018-05-13T05:48:53.429Z,11.28
2018-05-13T05:54:48.367Z,10.91
2018-05-13T06:00:43.474Z,11.19
2018-05-13T06:06:38.437Z,10.09
2018-05-13T06:12:33.408Z,11.74
2018-05-13T06:18:28.409Z,11.93
2018-05-13T06:24:23.393Z,11.28
2018-05-13T06:30:18.437Z,14.53
2018-05-13T06:36:13.440Z,13.74
2018-05-13T06:42:08.428Z,13.06
2018-05-13T06:48:03.402Z,13.04
2018-05-13T06:53:58.458Z,11.83
2018-05-13T06:59:53.466Z,11.88
2018-05-13T07:05:48.439Z,10.77
2018-05-13T07:11:43.407Z,10.69
2018-05-13T07:17:38.444Z,11.15
2018-05-13T07:23:33.433Z,10.49
2018-05-13T07:29:28.515Z,10.28
2018-05-13T07:35:23.453Z,11.54
2018-05-13T07:41:18.450Z,8.89
2018-05-13T07:47:13.507Z,9.27
2018-05-13T07:53:08.474Z,10.56
2018-05-13T07:59:03.462Z,9.78
2018-05-13T08:04:58.477Z,9.45
2018-05-13T08:10:53.488Z,19.39
2018-05-13T08:16:48.483Z,9.19
2018-05-13T08:22:43.522Z,8.42
2018-05-13T08:28:38.494Z,8.15
2018-05-13T08:34:33.505Z,7.64
2018-05-13T08:40:28.495Z,7.95
2018-05-13T08:46:23.530Z,8.46
2018-05-13T08:52:18.462Z,7.71
2018-05-13T08:58:13.491Z,7.24
2018-05-13T09:04:08.481Z,7.6
2018-05-13T09:10:03.521Z,6.13
2018-05-13T09:15:58.474Z,7.16
2018-05-13T09:21:53.561Z,7.09
2018-05-13T09:27:48.508Z,6.3
2018-05-13T09:33:43.531Z,5.86
2018-05-13T09:39:38.493Z,6.99
2018-05-13T09:45:33.540Z,5.6
2018-05-13T09:51:28.527Z,6.55
2018-05-13T09:57:23.554Z,6.93
2018-05-13T10:03:18.583Z,6.59
2018-05-13T10:09:13.613Z,6.25
2018-05-13T10:15:08.567Z,7.59
2018-05-13T10:21:03.524Z,11.63
2018-05-13T10:26:58.647Z,11.19
2018-05-13T10:32:53.548Z,6.85
2018-05-13T10:38:48.532Z,12.83
2018-05-13T10:44:43.547Z,6.69
2018-05-13T10:50:38.585Z,7.82
2018-05-13T10:56:33.572Z,7.07
2018-05-13T11:02:28.628Z,5.9
2018-05-13T11:08:23.592Z,5.44
2018-05-13T11:14:18.594Z,5.03
2018-05-13T11:20:13.619Z,5.82
2018-05-13T11:26:08.601Z,5.59
2018-05-13T11:32:03.569Z,4.89
2018-05-13T11:37:58.638Z,4.13
2018-05-13T11:43:53.583Z,4.53
2018-05-13T11:49:48.569Z,4.82
2018-05-13T11:55:43.589Z,4.71
2018-05-13T12:01:38.588Z,4.32
2018-05-13T12:07:33.579Z,4.57
2018-05-13T12:13:28.638Z,4.82
2018-05-13T12:19:23.621Z,4.68
2018-05-13T12:25:18.616Z,4.38
2018-05-13T12:31:13.611Z,4.25
2018-05-13T12:37:08.585Z,4.73
2018-05-13T12:43:03.651Z,4.13
2018-05-13T12:48:58.616Z,3.59
2018-05-13T12:54:53.623Z,4.06
2018-05-13T13:00:48.622Z,4.65
2018-05-13T13:06:43.626Z,4.86
2018-05-13T13:12:38.640Z,4.06
2018-05-13T13:18:33.619Z,4.19
2018-05-13T13:24:28.651Z,3.94
2018-05-13T13:30:23.693Z,4.87
2018-05-13T13:36:18.683Z,5.63
2018-05-13T13:42:13.668Z,5.6
2018-05-13T13:48:08.632Z,5.01
2018-05-13T13:54:03.632Z,4.88
2018-05-13T13:59:58.624Z,4.51
2018-05-13T14:05:53.659Z,4.1
2018-05-13T14:11:48.690Z,4.68
2018-05-13T14:17:43.685Z,4.33
2018-05-13T14:23:38.677Z,4.41
2018-05-13T14:29:33.691Z,5.37
2018-05-13T14:35:28.691Z,4.59
2018-05-13T14:41:23.683Z,4.69
2018-05-13T14:47:18.705Z,5.2
2018-05-13T14:53:13.698Z,4.6
2018-05-13T14:59:08.689Z,6.16
2018-05-13T15:05:03.819Z,4.3
2018-05-13T15:10:58.684Z,4.17
2018-05-13T15:16:53.691Z,3.54
2018-05-13T15:22:48.721Z,3.16
2018-05-13T15:28:43.757Z,3.34
2018-05-13T15:34:38.773Z,3.32
2018-05-13T15:40:33.716Z,3.58
2018-05-13T15:46:28.731Z,3.72
2018-05-13T15:52:23.750Z,4.24
2018-05-13T15:58:18.772Z,4.16
2018-05-13T16:04:13.733Z,3.44
2018-05-13T16:10:08.736Z,3.69
2018-05-13T16:16:03.731Z,4.62
2018-05-13T16:21:58.755Z,4.23
2018-05-13T16:27:53.773Z,3.97
2018-05-13T16:33:48.721Z,3.85
2018-05-13T16:39:43.717Z,4.37
2018-05-13T16:45:38.744Z,4.99
2018-05-13T16:51:33.778Z,4.58
2018-05-13T16:57:28.745Z,3.86
2018-05-13T17:03:23.794Z,4.33
2018-05-13T17:09:18.788Z,3.95
2018-05-13T17:15:13.765Z,3.73
2018-05-13T17:21:08.811Z,3.91
2018-05-13T17:27:03.756Z,4.37
2018-05-13T17:32:58.796Z,3.98
2018-05-13T17:38:53.766Z,4.24
2018-05-13T17:44:48.775Z,4.21
2018-05-13T17:50:43.811Z,4.97
2018-05-13T17:56:38.786Z,4.18
2018-05-13T18:02:33.759Z,5.23
2018-05-13T18:08:28.779Z,4.71
2018-05-13T18:14:23.814Z,4.65
2018-05-13T18:20:18.814Z,5
2018-05-13T18:26:13.821Z,5.04
2018-05-13T18:32:08.813Z,5.06
2018-05-13T18:38:03.835Z,4.35
2018-05-13T18:43:58.828Z,4
2018-05-13T18:49:53.797Z,5.19
2018-05-13T18:55:48.811Z,6.35
2018-05-13T19:01:43.835Z,7.04
2018-05-13T19:07:38.875Z,5.86
2018-05-13T19:13:33.806Z,3.17
2018-05-13T19:19:28.826Z,2.33
2018-05-13T19:25:23.925Z,2.8
2018-05-13T19:31:18.844Z,2.88
2018-05-13T19:37:13.839Z,3.2
2018-05-13T19:43:08.821Z,2.15
2018-05-13T19:49:03.826Z,2.48
2018-05-13T19:54:58.825Z,2.18
2018-05-13T20:00:53.885Z,2.05
2018-05-13T20:06:48.837Z,2.18
2018-05-13T20:12:43.859Z,2.48
2018-05-13T20:18:38.872Z,2.36
2018-05-13T20:24:33.826Z,2.59
2018-05-13T20:30:28.956Z,2.7
2018-05-13T20:36:23.875Z,2.97
2018-05-13T20:42:18.938Z,2.72
2018-05-13T20:48:13.894Z,2.53
2018-05-13T20:54:08.857Z,2.02
2018-05-13T21:00:03.885Z,2.65
2018-05-13T21:05:58.903Z,2.19
2018-05-13T21:11:53.926Z,2.26
2018-05-13T21:17:48.889Z,2.21
2018-05-13T21:23:43.936Z,2.57
2018-05-13T21:29:38.905Z,2.81
2018-05-13T21:35:33.888Z,2.37
2018-05-13T21:41:28.916Z,2.65
2018-05-13T21:47:23.990Z,2.53
2018-05-13T21:53:18.928Z,2.66
2018-05-13T21:59:13.908Z,2.7
2018-05-13T22:05:08.935Z,2.49
2018-05-13T22:11:03.914Z,2.3
2018-05-13T22:16:58.926Z,2.62
2018-05-13T22:22:53.936Z,4.41
2018-05-13T22:28:48.981Z,2.91
2018-05-13T22:34:44.026Z,2.61
2018-05-13T22:40:38.964Z,2.23
2018-05-13T22:46:33.978Z,2.28
2018-05-13T22:52:29.015Z,2.06
2018-05-13T22:58:23.998Z,4.62
2018-05-13T23:04:18.970Z,2.61
2018-05-13T23:10:13.972Z,2.86
2018-05-13T23:16:08.968Z,3.35
2018-05-13T23:22:03.964Z,2.18
2018-05-13T23:27:58.946Z,2.8
2018-05-13T23:33:53.964Z,0.74
2018-05-13T23:39:48.975Z,0.99
2018-05-13T23:45:43.965Z,1.93
2018-05-13T23:51:39.034Z,2.08
2018-05-13T23:57:33.994Z,1.72
